Time;durP1;ratioP1;P1;durP2;ratioP2;P2;SDS_P1;SDS_P2;PMS_P1;PMS_P2;Temp;Humidity;BMP_temperature;BMP_pressure;BME280_temperature;BME280_humidity;BME280_pressure;Samples;Min_cycle;Max_cycle;Signal;HPM_P1;HPM_P2
2023/09/01 00:01:35;;;;;;;7.18;2.22;;;;;;;;;;5030852;28;20029;-78
2023/09/01 00:04:21;;;;;;;4.78;2.10;;;;;;;;;;5027644;28;20037;-77
2023/09/01 00:07:06;;;;;;;3.72;2.47;;;;;;;;;;5030727;28;20022;-76
2023/09/01 00:09:51;;;;;;;9.27;2.85;;;;;;;;;;5001975;28;20042;-78
2023/09/01 00:12:36;;;;;;;4.50;2.10;;;;;;;;;;5018427;28;20173;-69
2023/09/01 00:15:22;;;;;;;7.80;2.60;;;;;;;;;;5030905;28;20050;-73
2023/09/01 00:18:07;;;;;;;4.82;2.15;;;;;;;;;;5030020;28;20069;-73
2023/09/01 00:20:56;;;;;;;8.60;3.47;;;;;;;;;;5004402;28;20049;-72
2023/09/01 00:23:41;;;;;;;3.92;2.30;;;;;;;;;;5018895;28;20064;-70
2023/09/01 00:26:27;;;;;;;6.68;2.50;;;;;;;;;;5003168;28;20033;-74
2023/09/01 00:29:12;;;;;;;5.88;2.40;;;;;;;;;;5032751;28;20025;-74
2023/09/01 00:31:57;;;;;;;7.28;2.45;;;;;;;;;;5004952;28;20032;-68
2023/09/01 00:34:43;;;;;;;8.98;2.72;;;;;;;;;;5005646;28;20080;-68
2023/09/01 00:37:28;;;;;;;7.85;2.33;;;;;;;;;;5033638;28;20061;-67
2023/09/01 00:40:14;;;;;;;5.35;2.10;;;;;;;;;;5013179;28;20022;-66
2023/09/01 00:42:59;;;;;;;4.32;2.38;;;;;;;;;;5018866;28;20078;-70
2023/09/01 00:45:44;;;;;;;8.73;2.70;;;;;;;;;;5033195;28;20117;-68
2023/09/01 00:48:29;;;;;;;7.18;2.47;;;;;;;;;;5014277;28;20106;-70
2023/09/01 00:51:14;;;;;;;4.90;2.28;;;;;;;;;;5017644;28;20416;-74
2023/09/01 00:54:00;;;;;;;5.25;2.42;;;;;;;;;;5004066;28;20137;-74
2023/09/01 00:56:47;;;;;;;7.47;2.28;;;;;;;;;;5006237;28;20026;-74
2023/09/01 00:59:32;;;;;;;7.40;2.75;;;;;;;;;;5019921;28;20045;-74
2023/09/01 01:02:17;;;;;;;5.68;2.00;;;;;;;;;;5030709;28;20037;-75
2023/09/01 01:05:14;;;;;;;6.68;2.08;;;;;;;;;;5029862;28;20025;-74
2023/09/01 01:08:18;;;;;;;4.20;2.28;;;;;;;;;;5000269;28;20034;-70
2023/09/01 01:11:09;;;;;;;3.58;1.70;;;;;;;;;;5006421;28;20592;-82
2023/09/01 01:13:58;;;;;;;6.10;2.45;;;;;;;;;;5005901;28;20030;-83
2023/09/01 01:16:43;;;;;;;9.48;2.55;;;;;;;;;;5030070;28;20669;-82
2023/09/01 01:19:28;;;;;;;3.75;2.00;;;;;;;;;;5024541;28;20022;-83
2023/09/01 01:22:14;;;;;;;5.05;1.80;;;;;;;;;;5006249;28;20113;-85
2023/09/01 01:24:59;;;;;;;8.07;1.92;;;;;;;;;;5007206;28;20033;-69
2023/09/01 01:27:44;;;;;;;5.28;2.45;;;;;;;;;;5003391;28;20025;-67
2023/09/01 01:30:30;;;;;;;5.28;2.92;;;;;;;;;;5001747;28;20057;-69
2023/09/01 01:33:29;;;;;;;6.93;1.98;;;;;;;;;;5017385;28;20041;-70
2023/09/01 01:36:36;;;;;;;4.45;2.10;;;;;;;;;;5028420;28;20046;-69
2023/09/01 01:39:24;;;;;;;6.03;2.45;;;;;;;;;;5032426;28;20104;-69
2023/09/01 01:42:10;;;;;;;5.30;2.00;;;;;;;;;;5026733;28;20556;-69
2023/09/01 01:44:56;;;;;;;9.30;2.75;;;;;;;;;;5006603;28;20034;-68
2023/09/01 01:47:42;;;;;;;5.25;2.60;;;;;;;;;;5016105;28;20428;-77
2023/09/01 01:50:27;;;;;;;9.07;2.40;;;;;;;;;;5005155;28;20034;-77
2023/09/01 01:53:13;;;;;;;5.85;2.03;;;;;;;;;;5002323;28;20913;-77
2023/09/01 01:55:58;;;;;;;5.78;2.13;;;;;;;;;;5002757;28;20050;-76
2023/09/01 01:58:43;;;;;;;4.68;1.92;;;;;;;;;;5001156;28;20034;-75
2023/09/01 02:01:28;;;;;;;3.67;2.15;;;;;;;;;;5001892;28;20037;-69
2023/09/01 02:04:13;;;;;;;5.63;2.17;;;;;;;;;;5022690;28;20555;-71
2023/09/01 02:06:59;;;;;;;3.67;2.13;;;;;;;;;;5006610;28;20065;-71
2023/09/01 02:09:44;;;;;;;7.80;2.88;;;;;;;;;;5031943;28;20037;-70
2023/09/01 02:12:29;;;;;;;8.25;2.30;;;;;;;;;;5001848;28;20030;-71
2023/09/01 02:15:14;;;;;;;3.83;1.88;;;;;;;;;;5017527;28;20066;-71
2023/09/01 02:18:00;;;;;;;3.63;1.83;;;;;;;;;;5004472;28;20377;-70
2023/09/01 02:20:45;;;;;;;7.20;2.50;;;;;;;;;;5008593;28;20026;-68
2023/09/01 02:23:30;;;;;;;3.70;1.65;;;;;;;;;;5005170;28;20036;-73
2023/09/01 02:26:16;;;;;;;6.60;2.20;;;;;;;;;;5028527;28;20061;-75
2023/09/01 02:29:05;;;;;;;5.32;2.28;;;;;;;;;;5002548;28;20117;-74
2023/09/01 02:31:53;;;;;;;6.05;1.80;;;;;;;;;;5006108;28;20025;-73
2023/09/01 02:34:38;;;;;;;8.70;2.50;;;;;;;;;;5004494;28;20042;-74
2023/09/01 02:37:24;;;;;;;3.58;1.70;;;;;;;;;;4993891;28;20389;-75
2023/09/01 02:40:12;;;;;;;5.13;2.30;;;;;;;;;;5005552;28;20017;-75
2023/09/01 02:42:57;;;;;;;6.47;2.33;;;;;;;;;;5020015;28;20025;-68
2023/09/01 02:45:42;;;;;;;5.07;2.05;;;;;;;;;;5013186;28;20022;-68
2023/09/01 02:48:27;;;;;;;3.70;1.70;;;;;;;;;;5015297;28;20037;-69
2023/09/01 02:51:13;;;;;;;4.47;1.73;;;;;;;;;;5001253;28;20030;-69
2023/09/01 02:53:58;;;;;;;6.30;1.88;;;;;;;;;;5029576;28;20528;-67
2023/09/01 02:56:43;;;;;;;5.45;1.90;;;;;;;;;;5003944;28;20193;-68
2023/09/01 02:59:28;;;;;;;4.40;1.70;;;;;;;;;;5004092;28;20033;-71
2023/09/01 03:02:14;;;;;;;5.63;1.85;;;;;;;;;;5029526;28;20040;-71
2023/09/01 03:04:59;;;;;;;4.00;2.10;;;;;;;;;;5004746;28;20064;-70
2023/09/01 03:07:44;;;;;;;2.15;1.58;;;;;;;;;;5003106;28;20033;-72
2023/09/01 03:10:30;;;;;;;3.28;1.70;;;;;;;;;;5005617;28;20039;-72
2023/09/01 03:13:15;;;;;;;5.38;2.22;;;;;;;;;;5004600;28;20061;-72
2023/09/01 03:16:01;;;;;;;4.35;1.90;;;;;;;;;;5002379;28;20092;-78
2023/09/01 03:18:46;;;;;;;5.07;2.35;;;;;;;;;;5019304;28;20054;-77
2023/09/01 03:21:31;;;;;;;6.75;1.70;;;;;;;;;;5025436;28;20101;-76
2023/09/01 03:24:16;;;;;;;5.32;2.03;;;;;;;;;;5032176;28;20101;-77
2023/09/01 03:27:01;;;;;;;7.43;2.33;;;;;;;;;;5002592;28;20053;-76
2023/09/01 03:29:50;;;;;;;3.92;1.63;;;;;;;;;;5002841;28;20036;-76
2023/09/01 03:32:35;;;;;;;5.80;2.03;;;;;;;;;;5000307;28;20183;-76
2023/09/01 03:35:20;;;;;;;3.08;1.85;;;;;;;;;;5031652;28;20075;-73
2023/09/01 03:38:06;;;;;;;4.63;2.28;;;;;;;;;;5002873;28;20429;-70
2023/09/01 03:40:51;;;;;;;6.80;1.98;;;;;;;;;;5004867;28;20037;-71
2023/09/01 03:43:36;;;;;;;3.42;1.55;;;;;;;;;;5001372;28;20053;-72
2023/09/01 03:46:21;;;;;;;4.68;1.70;;;;;;;;;;5029548;28;20040;-71
2023/09/01 03:49:06;;;;;;;3.58;2.08;;;;;;;;;;5023766;28;20023;-71
2023/09/01 03:51:52;;;;;;;6.45;1.65;;;;;;;;;;5014402;28;20389;-77
2023/09/01 03:54:37;;;;;;;2.90;1.50;;;;;;;;;;5002294;28;20176;-68
2023/09/01 03:57:22;;;;;;;3.55;1.90;;;;;;;;;;5019157;28;20034;-68
2023/09/01 04:00:12;;;;;;;4.00;1.90;;;;;;;;;;5000481;28;20037;-68
2023/09/01 04:02:57;;;;;;;4.68;2.25;;;;;;;;;;5006629;28;20425;-69
2023/09/01 04:05:42;;;;;;;3.72;1.50;;;;;;;;;;5003245;28;20030;-68
2023/09/01 04:08:28;;;;;;;4.60;1.90;;;;;;;;;;5028798;28;20034;-68
2023/09/01 04:11:13;;;;;;;4.70;1.80;;;;;;;;;;5000606;28;20113;-75
2023/09/01 04:13:58;;;;;;;5.78;2.25;;;;;;;;;;5020150;28;20076;-71
2023/09/01 04:16:43;;;;;;;4.50;2.03;;;;;;;;;;4998674;28;20496;-72
2023/09/01 04:19:28;;;;;;;3.95;2.00;;;;;;;;;;5028792;28;20061;-71
2023/09/01 04:22:14;;;;;;;6.35;2.15;;;;;;;;;;5002366;28;20037;-69
2023/09/01 04:24:59;;;;;;;4.70;1.88;;;;;;;;;;5030110;28;20117;-69
2023/09/01 04:27:44;;;;;;;2.50;1.40;;;;;;;;;;5012496;28;20038;-69
2023/09/01 04:30:30;;;;;;;3.75;2.10;;;;;;;;;;5001257;28;20026;-67
2023/09/01 04:33:15;;;;;;;6.00;1.27;;;;;;;;;;5017424;28;20037;-74
2023/09/01 04:36:03;;;;;;;3.22;1.88;;;;;;;;;;5002260;28;20394;-75
2023/09/01 04:38:48;;;;;;;4.50;1.60;;;;;;;;;;5033738;28;20030;-74
2023/09/01 04:41:34;;;;;;;2.88;1.33;;;;;;;;;;5016597;28;20466;-75
2023/09/01 04:44:19;;;;;;;5.38;1.60;;;;;;;;;;5007283;28;20564;-76
2023/09/01 04:47:04;;;;;;;3.47;1.80;;;;;;;;;;5018292;28;20124;-78
2023/09/01 04:49:50;;;;;;;5.43;2.10;;;;;;;;;;5022368;28;20040;-68
2023/09/01 04:52:35;;;;;;;3.97;1.92;;;;;;;;;;5003759;28;20025;-66
2023/09/01 04:55:20;;;;;;;3.85;1.77;;;;;;;;;;5009961;28;20046;-67
2023/09/01 04:58:05;;;;;;;2.78;1.70;;;;;;;;;;5001514;28;20030;-70
2023/09/01 05:01:00;;;;;;;6.22;1.70;;;;;;;;;;5006166;28;20045;-68
2023/09/01 05:03:45;;;;;;;3.78;1.65;;;;;;;;;;5009287;28;20535;-69
2023/09/01 05:06:30;;;;;;;3.47;1.70;;;;;;;;;;5039268;28;20373;-82
2023/09/01 05:09:15;;;;;;;3.47;2.00;;;;;;;;;;5008855;28;20072;-76
2023/09/01 05:12:00;;;;;;;5.72;2.25;;;;;;;;;;5009779;28;20350;-75
2023/09/01 05:14:46;;;;;;;6.88;2.58;;;;;;;;;;5013109;28;20841;-75
2023/09/01 05:17:31;;;;;;;6.70;1.80;;;;;;;;;;5039892;28;20033;-75
2023/09/01 05:20:16;;;;;;;2.95;1.90;;;;;;;;;;5009609;28;20080;-75
2023/09/01 05:23:02;;;;;;;4.65;1.90;;;;;;;;;;5007057;28;20033;-76
2023/09/01 05:25:51;;;;;;;2.60;1.73;;;;;;;;;;5004487;28;20032;-68
2023/09/01 05:28:36;;;;;;;5.03;1.65;;;;;;;;;;5014320;28;20116;-72
2023/09/01 05:31:21;;;;;;;3.95;2.17;;;;;;;;;;5028627;28;20485;-70
2023/09/01 05:34:07;;;;;;;4.40;1.83;;;;;;;;;;5004662;28;20196;-71
2023/09/01 05:36:56;;;;;;;4.82;2.35;;;;;;;;;;5012905;28;20037;-72
2023/09/01 05:39:42;;;;;;;2.38;1.50;;;;;;;;;;5004355;28;20045;-71
2023/09/01 05:42:27;;;;;;;4.50;1.80;;;;;;;;;;4994599;28;20057;-76
2023/09/01 05:45:12;;;;;;;5.40;2.17;;;;;;;;;;5023130;28;20029;-78
2023/09/01 05:47:58;;;;;;;2.55;1.58;;;;;;;;;;5017828;28;20037;-78
2023/09/01 05:50:43;;;;;;;2.25;1.77;;;;;;;;;;5028682;28;20034;-77
2023/09/01 05:53:29;;;;;;;6.82;2.00;;;;;;;;;;5016033;28;20431;-76
2023/09/01 05:56:15;;;;;;;4.88;1.90;;;;;;;;;;5007330;28;20049;-75
2023/09/01 05:59:00;;;;;;;2.85;1.88;;;;;;;;;;5024120;28;20586;-75
2023/09/01 06:01:46;;;;;;;4.22;1.75;;;;;;;;;;5011834;28;20034;-74
2023/09/01 06:04:31;;;;;;;4.13;1.75;;;;;;;;;;5019242;28;20060;-79
2023/09/01 06:07:16;;;;;;;4.30;1.60;;;;;;;;;;5005569;28;20083;-80
2023/09/01 06:10:01;;;;;;;4.40;2.13;;;;;;;;;;5005129;28;20454;-79
2023/09/01 06:12:47;;;;;;;4.15;1.38;;;;;;;;;;5006943;28;20026;-76
2023/09/01 06:15:32;;;;;;;4.30;1.65;;;;;;;;;;5009019;28;20080;-80
2023/09/01 06:18:17;;;;;;;5.43;1.58;;;;;;;;;;5011467;28;20059;-78
2023/09/01 06:21:03;;;;;;;3.28;1.40;;;;;;;;;;5009985;28;20037;-74
2023/09/01 06:23:48;;;;;;;6.72;2.63;;;;;;;;;;5031694;28;20053;-70
2023/09/01 06:26:33;;;;;;;4.05;2.00;;;;;;;;;;5010930;28;20029;-70
2023/09/01 06:29:18;;;;;;;2.60;1.50;;;;;;;;;;5010894;28;20034;-70
2023/09/01 06:32:04;;;;;;;4.25;1.50;;;;;;;;;;5009724;28;20040;-71
2023/09/01 06:34:49;;;;;;;4.07;1.63;;;;;;;;;;5010075;28;20034;-69
2023/09/01 06:37:35;;;;;;;3.25;1.92;;;;;;;;;;5008781;28;20050;-71
2023/09/01 06:40:20;;;;;;;3.33;1.63;;;;;;;;;;5013549;28;20430;-70
2023/09/01 06:43:05;;;;;;;5.20;1.90;;;;;;;;;;5014865;28;20037;-70
2023/09/01 06:45:50;;;;;;;2.95;1.48;;;;;;;;;;5035588;28;20427;-70
2023/09/01 06:48:36;;;;;;;4.88;1.45;;;;;;;;;;5011619;28;20025;-71
2023/09/01 06:51:21;;;;;;;3.33;1.52;;;;;;;;;;5014691;28;20049;-72
2023/09/01 06:54:06;;;;;;;3.80;2.10;;;;;;;;;;5012861;28;20045;-72
2023/09/01 06:56:52;;;;;;;2.08;1.40;;;;;;;;;;5012736;28;20063;-85
2023/09/01 06:59:37;;;;;;;2.53;1.55;;;;;;;;;;5011608;28;20044;-80
2023/09/01 07:02:22;;;;;;;1.80;1.50;;;;;;;;;;5023961;28;20025;-84
2023/09/01 07:05:07;;;;;;;1.40;1.27;;;;;;;;;;5007174;28;20048;-81
2023/09/01 07:07:53;;;;;;;1.73;1.25;;;;;;;;;;5010100;28;20109;-82
2023/09/01 07:10:38;;;;;;;1.85;1.23;;;;;;;;;;5006681;28;20033;-83
2023/09/01 07:13:23;;;;;;;3.00;1.85;;;;;;;;;;5004014;28;20041;-81
2023/09/01 07:16:08;;;;;;;2.20;1.30;;;;;;;;;;5029085;28;20034;-85
2023/09/01 07:18:54;;;;;;;4.50;1.35;;;;;;;;;;5016640;28;20025;-82
2023/09/01 07:21:39;;;;;;;2.40;1.50;;;;;;;;;;5018421;28;20063;-82
2023/09/01 07:24:24;;;;;;;2.67;1.50;;;;;;;;;;5008527;28;20061;-84
2023/09/01 07:27:09;;;;;;;1.23;1.10;;;;;;;;;;5006116;28;20024;-85
2023/09/01 07:29:55;;;;;;;4.32;1.33;;;;;;;;;;5031708;28;20029;-81
2023/09/01 07:32:40;;;;;;;3.72;1.52;;;;;;;;;;5005130;28;20374;-71
2023/09/01 07:35:25;;;;;;;2.00;1.23;;;;;;;;;;5010282;28;20029;-77
2023/09/01 07:38:10;;;;;;;3.30;1.33;;;;;;;;;;5010211;28;20025;-75
2023/09/01 07:40:56;;;;;;;3.40;1.30;;;;;;;;;;5002268;28;20079;-79
2023/09/01 07:43:41;;;;;;;6.05;1.80;;;;;;;;;;5008199;28;20096;-77
2023/09/01 07:46:27;;;;;;;6.13;1.70;;;;;;;;;;5011087;28;20628;-77
2023/09/01 07:49:12;;;;;;;2.90;1.70;;;;;;;;;;5003223;28;20076;-78
2023/09/01 07:51:58;;;;;;;3.58;1.58;;;;;;;;;;5008309;28;20026;-70
2023/09/01 07:54:43;;;;;;;7.93;2.03;;;;;;;;;;5000942;28;20129;-80
2023/09/01 07:57:28;;;;;;;2.10;1.45;;;;;;;;;;5018969;28;20038;-82
2023/09/01 08:00:13;;;;;;;1.33;1.23;;;;;;;;;;4978128;28;20038;-80
2023/09/01 08:02:59;;;;;;;3.53;1.50;;;;;;;;;;5005801;28;20033;-82
2023/09/01 08:05:44;;;;;;;3.55;1.73;;;;;;;;;;5006313;28;20400;-79
2023/09/01 08:08:29;;;;;;;3.85;1.40;;;;;;;;;;5033469;28;20030;-83
2023/09/01 08:11:15;;;;;;;2.15;1.42;;;;;;;;;;5007791;28;20028;-73
2023/09/01 08:14:00;;;;;;;3.65;1.63;;;;;;;;;;5030857;28;20040;-77
2023/09/01 08:16:45;;;;;;;4.95;1.83;;;;;;;;;;5026050;28;20492;-78
2023/09/01 08:19:30;;;;;;;2.63;1.55;;;;;;;;;;5034998;28;20185;-80
2023/09/01 08:22:16;;;;;;;1.88;1.42;;;;;;;;;;4997082;28;20030;-78
2023/09/01 08:25:01;;;;;;;3.63;1.60;;;;;;;;;;5006192;28;20032;-78
2023/09/01 08:27:47;;;;;;;1.95;1.20;;;;;;;;;;5000819;28;20108;-70
2023/09/01 08:30:32;;;;;;;1.77;1.00;;;;;;;;;;4998542;28;20115;-72
2023/09/01 08:33:17;;;;;;;1.75;1.10;;;;;;;;;;5013622;28;20083;-71
2023/09/01 08:36:03;;;;;;;2.08;1.50;;;;;;;;;;5033901;28;20068;-69
2023/09/01 08:38:49;;;;;;;1.95;1.40;;;;;;;;;;5012768;28;20018;-69
2023/09/01 08:41:34;;;;;;;2.95;1.42;;;;;;;;;;5003147;28;20171;-70
2023/09/01 08:44:22;;;;;;;2.58;1.17;;;;;;;;;;5017390;28;20040;-71
2023/09/01 08:47:10;;;;;;;2.13;1.20;;;;;;;;;;5034750;28;20044;-70
2023/09/01 08:49:55;;;;;;;0.93;0.90;;;;;;;;;;5016870;28;20029;-74
2023/09/01 08:52:42;;;;;;;2.75;1.20;;;;;;;;;;5015556;28;20030;-73
2023/09/01 08:55:27;;;;;;;1.10;0.90;;;;;;;;;;5014400;28;20045;-71
2023/09/01 08:58:12;;;;;;;2.53;1.40;;;;;;;;;;5014042;28;20416;-73
2023/09/01 09:00:57;;;;;;;1.65;0.90;;;;;;;;;;5023051;28;20088;-73
2023/09/01 09:03:43;;;;;;;1.08;0.98;;;;;;;;;;5013748;28;20061;-71
2023/09/01 09:06:32;;;;;;;2.78;1.15;;;;;;;;;;5022767;28;20444;-71
2023/09/01 09:09:18;;;;;;;;;;;;;;;;;;5032058;28;20463;-71
2023/09/01 09:12:04;;;;;;;2.45;0.90;;;;;;;;;;5020913;28;20261;-70
2023/09/01 09:14:52;;;;;;;1.60;0.77;;;;;;;;;;4995072;28;20087;-71
2023/09/01 09:17:45;;;;;;;1.10;0.90;;;;;;;;;;5013843;28;20404;-70
2023/09/01 09:20:39;;;;;;;5.95;1.20;;;;;;;;;;5011816;28;20061;-70
2023/09/01 09:23:40;;;;;;;3.00;0.90;;;;;;;;;;5020179;28;20122;-76
2023/09/01 09:26:26;;;;;;;1.83;0.90;;;;;;;;;;5024310;28;20103;-69
2023/09/01 09:29:14;;;;;;;1.83;1.13;;;;;;;;;;5029898;28;20072;-71
2023/09/01 09:31:59;;;;;;;2.72;1.20;;;;;;;;;;5009329;28;20048;-71
2023/09/01 09:35:03;;;;;;;2.28;1.23;;;;;;;;;;5026836;28;20032;-70
2023/09/01 09:37:59;;;;;;;3.05;1.40;;;;;;;;;;5015062;28;20408;-68
2023/09/01 09:40:57;;;;;;;2.67;1.27;;;;;;;;;;5007826;28;20468;-69
2023/09/01 09:43:46;;;;;;;1.90;1.40;;;;;;;;;;5006989;28;20113;-74
2023/09/01 09:46:39;;;;;;;4.00;1.10;;;;;;;;;;5014089;28;20049;-70
2023/09/01 09:49:25;;;;;;;3.28;1.40;;;;;;;;;;5010796;28;20034;-68
2023/09/01 09:52:11;;;;;;;2.60;1.33;;;;;;;;;;5036694;28;20461;-67
2023/09/01 09:55:00;;;;;;;1.27;1.15;;;;;;;;;;5013261;28;20081;-67
2023/09/01 09:57:48;;;;;;;2.10;1.33;;;;;;;;;;5024512;28;20026;-67
2023/09/01 10:00:40;;;;;;;3.65;1.45;;;;;;;;;;5013400;28;20050;-72
2023/09/01 10:03:29;;;;;;;4.85;2.30;;;;;;;;;;5022304;28;20683;-71
2023/09/01 10:06:18;;;;;;;2.72;1.15;;;;;;;;;;5021453;28;20481;-71
2023/09/01 10:09:05;;;;;;;2.22;1.50;;;;;;;;;;5037491;28;20029;-71
2023/09/01 10:11:50;;;;;;;3.80;1.83;;;;;;;;;;5012684;28;20041;-69
2023/09/01 10:14:39;;;;;;;3.08;1.20;;;;;;;;;;5012996;28;20615;-70
2023/09/01 10:17:25;;;;;;;3.67;1.67;;;;;;;;;;5011888;28;20041;-69
2023/09/01 10:20:12;;;;;;;2.63;1.40;;;;;;;;;;5024484;28;20096;-83
2023/09/01 10:22:57;;;;;;;4.63;1.67;;;;;;;;;;5015162;28;20034;-70
2023/09/01 10:26:02;;;;;;;2.55;1.30;;;;;;;;;;5008246;28;20125;-72
2023/09/01 10:28:55;;;;;;;1.98;1.48;;;;;;;;;;5031184;28;20767;-70
2023/09/01 10:31:41;;;;;;;4.32;1.58;;;;;;;;;;5019835;28;20038;-70
2023/09/01 10:34:29;;;;;;;2.95;1.73;;;;;;;;;;5030861;28;20639;-72
2023/09/01 10:37:28;;;;;;;3.22;1.33;;;;;;;;;;5011315;28;20578;-67
2023/09/01 10:40:38;;;;;;;3.45;1.77;;;;;;;;;;5019378;28;20022;-70
2023/09/01 10:43:41;;;;;;;2.80;1.40;;;;;;;;;;5028486;28;20035;-69
2023/09/01 10:46:26;;;;;;;2.30;1.27;;;;;;;;;;5009545;28;20305;-69
2023/09/01 10:49:12;;;;;;;3.80;1.77;;;;;;;;;;5034023;28;20042;-73
2023/09/01 10:52:16;;;;;;;3.95;1.48;;;;;;;;;;5011773;28;20426;-69
2023/09/01 10:55:03;;;;;;;3.95;2.33;;;;;;;;;;4997877;28;20265;-69
2023/09/01 10:57:52;;;;;;;3.28;1.70;;;;;;;;;;5007070;28;20029;-82
2023/09/01 11:00:37;;;;;;;5.35;2.17;;;;;;;;;;5006651;28;20030;-83
2023/09/01 11:03:29;;;;;;;3.80;1.92;;;;;;;;;;5011125;28;20030;-82
2023/09/01 11:06:15;;;;;;;3.78;1.63;;;;;;;;;;4991700;28;20069;-83
2023/09/01 11:09:00;;;;;;;5.53;2.05;;;;;;;;;;5013660;28;20021;-79
2023/09/01 11:11:49;;;;;;;1.90;1.33;;;;;;;;;;5018437;28;20508;-78
2023/09/01 11:14:38;;;;;;;6.93;2.70;;;;;;;;;;5010866;28;20042;-76
2023/09/01 11:17:39;;;;;;;4.43;1.63;;;;;;;;;;5004824;28;20117;-80
2023/09/01 11:20:28;;;;;;;5.03;2.00;;;;;;;;;;5022375;28;20033;-78
2023/09/01 11:23:24;;;;;;;2.00;1.25;;;;;;;;;;5020008;28;20612;-83
2023/09/01 11:26:09;;;;;;;4.13;1.73;;;;;;;;;;5022556;28;20030;-84
2023/09/01 11:28:55;;;;;;;1.95;1.40;;;;;;;;;;5021506;28;20053;-86
2023/09/01 11:31:44;;;;;;;4.47;1.77;;;;;;;;;;5030315;28;20457;-77
2023/09/01 11:34:30;;;;;;;;;;;;;;;;;;5027137;28;20076;-75
2023/09/01 11:37:15;;;;;;;1.95;1.50;;;;;;;;;;5010501;28;19909;-69
2023/09/01 11:40:00;;;;;;;2.85;1.50;;;;;;;;;;5014723;28;20034;-70
2023/09/01 11:42:46;;;;;;;2.28;1.45;;;;;;;;;;5013058;28;20058;-68
2023/09/01 11:45:31;;;;;;;4.03;1.50;;;;;;;;;;5010984;28;20030;-72
2023/09/01 11:48:26;;;;;;;1.58;1.20;;;;;;;;;;5009361;28;20032;-72
2023/09/01 11:51:11;;;;;;;4.90;1.42;;;;;;;;;;5011295;28;20096;-76
2023/09/01 11:53:57;;;;;;;4.05;1.48;;;;;;;;;;5015757;28;20053;-71
2023/09/01 11:56:43;;;;;;;1.95;1.35;;;;;;;;;;5030455;28;20091;-70
2023/09/01 11:59:28;;;;;;;3.60;1.08;;;;;;;;;;5019702;28;20039;-72
2023/09/01 12:02:14;;;;;;;1.55;1.02;;;;;;;;;;5041760;28;20029;-70
2023/09/01 12:05:00;;;;;;;3.53;1.75;;;;;;;;;;5013399;28;20022;-71
2023/09/01 12:07:51;;;;;;;3.42;1.25;;;;;;;;;;4995872;28;20505;-69
2023/09/01 12:10:37;;;;;;;5.53;1.40;;;;;;;;;;5012910;28;20040;-71
2023/09/01 12:13:23;;;;;;;2.17;1.20;;;;;;;;;;5018951;28;20041;-73
2023/09/01 12:16:17;;;;;;;1.30;1.00;;;;;;;;;;5016245;28;20488;-75
2023/09/01 12:19:02;;;;;;;1.75;1.05;;;;;;;;;;5020690;28;20075;-73
2023/09/01 12:21:48;;;;;;;2.58;1.02;;;;;;;;;;5007268;28;20040;-75
2023/09/01 12:24:33;;;;;;;1.52;0.93;;;;;;;;;;5026070;28;20389;-74
2023/09/01 12:27:18;;;;;;;3.00;1.40;;;;;;;;;;5022213;28;20054;-69
2023/09/01 12:30:04;;;;;;;1.27;1.00;;;;;;;;;;5018859;28;20041;-75
2023/09/01 12:32:49;;;;;;;1.35;1.17;;;;;;;;;;5027511;28;20052;-75
2023/09/01 12:35:34;;;;;;;1.10;1.00;;;;;;;;;;5012504;28;20041;-76
2023/09/01 12:38:20;;;;;;;1.60;1.30;;;;;;;;;;5006071;28;20104;-77
2023/09/01 12:41:05;;;;;;;2.63;1.08;;;;;;;;;;5009586;28;20250;-76
2023/09/01 12:43:50;;;;;;;3.10;1.23;;;;;;;;;;5015079;28;20554;-75
2023/09/01 12:46:36;;;;;;;2.20;1.35;;;;;;;;;;5023830;28;20537;-70
2023/09/01 12:49:21;;;;;;;3.17;1.40;;;;;;;;;;5023672;28;20045;-80
2023/09/01 12:52:06;;;;;;;3.80;1.15;;;;;;;;;;5019195;28;20040;-81
2023/09/01 12:54:51;;;;;;;2.28;1.55;;;;;;;;;;5037833;28;20049;-83
2023/09/01 12:57:37;;;;;;;4.72;1.40;;;;;;;;;;5031949;28;20042;-82
2023/09/01 13:00:22;;;;;;;3.25;1.20;;;;;;;;;;5014134;28;20041;-85
2023/09/01 13:03:07;;;;;;;1.77;1.20;;;;;;;;;;5033217;28;20033;-81
2023/09/01 13:05:54;;;;;;;1.20;1.02;;;;;;;;;;5024664;28;20033;-82
2023/09/01 13:08:39;;;;;;;2.90;1.33;;;;;;;;;;5009757;28;20041;-81
2023/09/01 13:11:24;;;;;;;4.53;1.45;;;;;;;;;;5016142;28;20075;-78
2023/09/01 13:14:09;;;;;;;1.70;1.00;;;;;;;;;;5026709;28;20034;-79
2023/09/01 13:16:55;;;;;;;1.73;1.25;;;;;;;;;;5024516;28;20045;-78
2023/09/01 13:19:40;;;;;;;2.55;1.20;;;;;;;;;;5046883;28;20106;-81
2023/09/01 13:22:26;;;;;;;2.45;1.48;;;;;;;;;;5012768;28;20496;-69
2023/09/01 13:25:11;;;;;;;3.33;1.55;;;;;;;;;;5006121;28;20038;-67
2023/09/01 13:27:57;;;;;;;2.03;0.95;;;;;;;;;;5012643;28;20038;-68
2023/09/01 13:30:42;;;;;;;2.05;1.40;;;;;;;;;;5034350;28;20034;-70
2023/09/01 13:33:27;;;;;;;2.00;1.25;;;;;;;;;;5014806;28;20117;-69
2023/09/01 13:36:12;;;;;;;3.05;1.45;;;;;;;;;;5026302;28;20029;-67
2023/09/01 13:38:57;;;;;;;2.55;1.35;;;;;;;;;;5016148;28;20025;-69
2023/09/01 13:41:43;;;;;;;1.55;1.10;;;;;;;;;;5006722;28;20033;-78
2023/09/01 13:44:29;;;;;;;5.90;2.28;;;;;;;;;;5032239;28;20470;-82
2023/09/01 13:47:14;;;;;;;1.95;1.08;;;;;;;;;;5015485;28;20416;-80
2023/09/01 13:49:59;;;;;;;2.97;1.35;;;;;;;;;;5018498;28;20414;-80
2023/09/01 13:52:45;;;;;;;1.98;1.40;;;;;;;;;;5025507;28;20026;-78
2023/09/01 13:55:30;;;;;;;6.30;1.40;;;;;;;;;;5008378;28;20553;-81
2023/09/01 13:58:15;;;;;;;1.75;1.20;;;;;;;;;;5005411;28;20026;-81
2023/09/01 14:01:00;;;;;;;8.48;1.33;;;;;;;;;;5019281;28;20033;-77
2023/09/01 14:03:45;;;;;;;2.47;1.25;;;;;;;;;;5009294;28;20379;-75
2023/09/01 14:06:31;;;;;;;2.30;1.13;;;;;;;;;;5005786;28;20029;-75
2023/09/01 14:09:16;;;;;;;1.48;1.20;;;;;;;;;;5030039;28;20120;-75
2023/09/01 14:12:02;;;;;;;3.05;1.02;;;;;;;;;;5015819;28;20061;-76
2023/09/01 14:14:48;;;;;;;2.33;1.23;;;;;;;;;;5032036;28;20034;-76
2023/09/01 14:17:33;;;;;;;2.05;1.02;;;;;;;;;;4999336;28;20038;-70
2023/09/01 14:20:18;;;;;;;3.85;1.95;;;;;;;;;;5039770;28;20064;-66
2023/09/01 14:23:03;;;;;;;2.25;1.30;;;;;;;;;;5011351;28;20036;-69
2023/09/01 14:25:48;;;;;;;2.03;1.45;;;;;;;;;;5010829;28;20041;-73
2023/09/01 14:28:34;;;;;;;2.47;1.20;;;;;;;;;;5019755;28;20053;-68
2023/09/01 14:31:19;;;;;;;2.92;1.33;;;;;;;;;;5025654;28;20025;-69
2023/09/01 14:34:04;;;;;;;2.05;1.38;;;;;;;;;;5004853;28;20031;-67
2023/09/01 14:36:49;;;;;;;1.80;1.20;;;;;;;;;;5009615;28;20033;-79
2023/09/01 14:39:35;;;;;;;2.60;1.17;;;;;;;;;;5010028;28;20036;-70
2023/09/01 14:42:20;;;;;;;3.17;1.50;;;;;;;;;;5009549;28;20022;-70
2023/09/01 14:45:05;;;;;;;2.55;1.45;;;;;;;;;;5010577;28;20481;-70
2023/09/01 14:47:50;;;;;;;1.63;1.15;;;;;;;;;;5017862;28;20033;-69
2023/09/01 14:50:36;;;;;;;3.95;1.60;;;;;;;;;;5011132;28;20079;-68
2023/09/01 14:53:21;;;;;;;2.95;1.20;;;;;;;;;;5026484;28;20033;-69
2023/09/01 14:56:07;;;;;;;2.30;1.38;;;;;;;;;;5031919;28;20508;-69
2023/09/01 14:58:53;;;;;;;1.65;1.13;;;;;;;;;;5015023;28;20120;-69
2023/09/01 15:01:39;;;;;;;2.08;1.25;;;;;;;;;;5007936;28;20061;-68
2023/09/01 15:04:25;;;;;;;1.10;0.93;;;;;;;;;;5034885;28;20051;-70
2023/09/01 15:07:10;;;;;;;1.40;1.10;;;;;;;;;;5027162;28;20464;-69
2023/09/01 15:09:55;;;;;;;1.10;1.00;;;;;;;;;;5022620;28;20033;-68
2023/09/01 15:12:44;;;;;;;2.55;1.20;;;;;;;;;;5014180;28;20060;-76
2023/09/01 15:15:29;;;;;;;3.15;1.10;;;;;;;;;;5014489;28;20029;-70
2023/09/01 15:18:14;;;;;;;2.03;1.05;;;;;;;;;;4999873;28;20039;-70
2023/09/01 15:21:00;;;;;;;3.15;1.30;;;;;;;;;;5024940;28;20025;-71
2023/09/01 15:23:46;;;;;;;2.67;1.30;;;;;;;;;;5005215;28;20014;-71
2023/09/01 15:26:32;;;;;;;2.08;1.20;;;;;;;;;;5031595;28;20029;-74
2023/09/01 15:29:17;;;;;;;10.93;1.52;;;;;;;;;;5010636;28;20075;-70
2023/09/01 15:32:03;;;;;;;1.90;1.17;;;;;;;;;;5008489;28;20022;-69
2023/09/01 15:34:48;;;;;;;4.07;1.40;;;;;;;;;;5012090;28;20453;-69
2023/09/01 15:37:33;;;;;;;3.25;1.77;;;;;;;;;;5008768;28;20472;-71
2023/09/01 15:40:22;;;;;;;2.60;1.70;;;;;;;;;;5019783;28;20029;-69
2023/09/01 15:43:07;;;;;;;3.17;1.50;;;;;;;;;;5005530;28;20030;-69
2023/09/01 15:46:02;;;;;;;2.85;1.58;;;;;;;;;;5010636;28;20165;-70
2023/09/01 15:48:47;;;;;;;4.88;1.48;;;;;;;;;;5011427;28;20029;-74
2023/09/01 15:51:33;;;;;;;4.82;1.50;;;;;;;;;;5010730;28;20470;-70
2023/09/01 15:54:19;;;;;;;4.00;1.35;;;;;;;;;;5032580;28;20428;-73
2023/09/01 15:57:05;;;;;;;2.28;1.40;;;;;;;;;;5009101;28;20081;-72
2023/09/01 15:59:50;;;;;;;1.67;1.20;;;;;;;;;;5004168;28;20105;-72
2023/09/01 16:02:36;;;;;;;6.15;1.67;;;;;;;;;;5012715;28;20073;-71
2023/09/01 16:05:21;;;;;;;2.08;1.45;;;;;;;;;;5039408;28;20176;-71
2023/09/01 16:08:06;;;;;;;2.88;1.67;;;;;;;;;;5004836;28;20120;-71
2023/09/01 16:10:51;;;;;;;3.50;1.30;;;;;;;;;;5021793;28;20029;-69
2023/09/01 16:13:36;;;;;;;3.60;1.75;;;;;;;;;;5012047;28;20123;-70
2023/09/01 16:16:22;;;;;;;4.22;2.20;;;;;;;;;;5008979;28;21582;-73
2023/09/01 16:19:07;;;;;;;2.78;1.55;;;;;;;;;;5006018;28;20017;-71
2023/09/01 16:21:52;;;;;;;4.05;1.50;;;;;;;;;;5010572;28;20030;-70
2023/09/01 16:24:37;;;;;;;3.08;1.20;;;;;;;;;;5015032;28;20066;-69
2023/09/01 16:27:23;;;;;;;4.22;1.92;;;;;;;;;;5014464;28;20041;-77
2023/09/01 16:30:09;;;;;;;5.55;2.22;;;;;;;;;;5016793;28;20057;-70
2023/09/01 16:32:54;;;;;;;4.95;2.10;;;;;;;;;;5011085;28;20033;-71
2023/09/01 16:35:59;;;;;;;5.03;1.70;;;;;;;;;;5029451;28;20485;-70
2023/09/01 16:38:44;;;;;;;5.75;1.70;;;;;;;;;;5004693;28;20088;-71